sensor_id;sensor_type;location;lat;lon;timestamp;P1;durP1;ratioP1;P2;durP2;ratioP2
21110;SDS011;10713;51.912;4.494;2023-11-21T00:00:03;15.43;;;4.97;;
21110;SDS011;10713;51.912;4.494;2023-11-21T00:02:35;16.35;;;4.43;;
21110;SDS011;10713;51.912;4.494;2023-11-21T00:05:01;8.18;;;3.33;;
21110;SDS011;10713;51.912;4.494;2023-11-21T00:07:28;12.73;;;4.60;;
21110;SDS011;10713;51.912;4.494;2023-11-21T00:09:53;13.80;;;4.28;;
21110;SDS011;10713;51.912;4.494;2023-11-21T00:12:20;18.27;;;5.22;;
21110;SDS011;10713;51.912;4.494;2023-11-21T00:14:46;14.45;;;4.88;;
21110;SDS011;10713;51.912;4.494;2023-11-21T00:17:11;17.80;;;5.00;;
21110;SDS011;10713;51.912;4.494;2023-11-21T00:19:36;14.35;;;4.53;;
21110;SDS011;10713;51.912;4.494;2023-11-21T00:22:02;19.55;;;4.38;;
21110;SDS011;10713;51.912;4.494;2023-11-21T00:24:27;15.82;;;4.70;;
21110;SDS011;10713;51.912;4.494;2023-11-21T00:26:52;13.55;;;3.85;;
21110;SDS011;10713;51.912;4.494;2023-11-21T00:29:18;11.43;;;4.10;;
21110;SDS011;10713;51.912;4.494;2023-11-21T00:31:44;8.77;;;4.03;;
21110;SDS011;10713;51.912;4.494;2023-11-21T00:34:10;19.35;;;5.28;;
21110;SDS011;10713;51.912;4.494;2023-11-21T00:36:36;17.80;;;4.72;;
21110;SDS011;10713;51.912;4.494;2023-11-21T00:39:02;10.63;;;4.40;;
21110;SDS011;10713;51.912;4.494;2023-11-21T00:41:27;6.40;;;3.40;;
21110;SDS011;10713;51.912;4.494;2023-11-21T00:43:53;17.02;;;4.30;;
21110;SDS011;10713;51.912;4.494;2023-11-21T00:46:20;15.70;;;4.97;;
21110;SDS011;10713;51.912;4.494;2023-11-21T00:48:45;19.63;;;4.63;;
21110;SDS011;10713;51.912;4.494;2023-11-21T00:51:11;12.05;;;3.50;;
21110;SDS011;10713;51.912;4.494;2023-11-21T00:53:36;9.75;;;3.78;;
21110;SDS011;10713;51.912;4.494;2023-11-21T00:56:01;13.05;;;4.25;;
21110;SDS011;10713;51.912;4.494;2023-11-21T00:58:27;21.30;;;4.80;;
21110;SDS011;10713;51.912;4.494;2023-11-21T01:00:53;11.75;;;4.25;;
21110;SDS011;10713;51.912;4.494;2023-11-21T01:03:18;13.82;;;4.35;;
21110;SDS011;10713;51.912;4.494;2023-11-21T01:05:43;12.48;;;3.97;;
21110;SDS011;10713;51.912;4.494;2023-11-21T01:08:09;15.98;;;3.88;;
21110;SDS011;10713;51.912;4.494;2023-11-21T01:10:35;8.38;;;3.90;;
21110;SDS011;10713;51.912;4.494;2023-11-21T01:13:00;11.35;;;4.10;;
21110;SDS011;10713;51.912;4.494;2023-11-21T01:15:26;9.88;;;3.72;;
21110;SDS011;10713;51.912;4.494;2023-11-21T01:17:52;15.38;;;4.10;;
21110;SDS011;10713;51.912;4.494;2023-11-21T01:20:18;9.55;;;3.47;;
21110;SDS011;10713;51.912;4.494;2023-11-21T01:22:43;11.80;;;3.92;;
21110;SDS011;10713;51.912;4.494;2023-11-21T01:25:09;7.97;;;3.60;;
21110;SDS011;10713;51.912;4.494;2023-11-21T01:27:35;15.13;;;3.95;;
21110;SDS011;10713;51.912;4.494;2023-11-21T01:30:02;9.70;;;2.92;;
21110;SDS011;10713;51.912;4.494;2023-11-21T01:32:28;17.52;;;4.50;;
21110;SDS011;10713;51.912;4.494;2023-11-21T01:34:53;11.32;;;3.35;;
21110;SDS011;10713;51.912;4.494;2023-11-21T01:37:20;14.73;;;3.88;;
21110;SDS011;10713;51.912;4.494;2023-11-21T01:39:46;12.55;;;3.25;;
21110;SDS011;10713;51.912;4.494;2023-11-21T01:42:12;8.48;;;3.92;;
21110;SDS011;10713;51.912;4.494;2023-11-21T01:44:38;7.55;;;3.03;;
21110;SDS011;10713;51.912;4.494;2023-11-21T01:47:04;7.57;;;3.35;;
21110;SDS011;10713;51.912;4.494;2023-11-21T01:49:33;15.95;;;4.75;;
21110;SDS011;10713;51.912;4.494;2023-11-21T01:51:59;10.77;;;3.90;;
21110;SDS011;10713;51.912;4.494;2023-11-21T01:54:25;8.32;;;3.70;;
21110;SDS011;10713;51.912;4.494;2023-11-21T01:56:51;11.45;;;3.30;;
21110;SDS011;10713;51.912;4.494;2023-11-21T01:59:20;11.05;;;4.15;;
21110;SDS011;10713;51.912;4.494;2023-11-21T02:01:46;9.07;;;3.88;;
21110;SDS011;10713;51.912;4.494;2023-11-21T02:04:12;9.93;;;4.10;;
21110;SDS011;10713;51.912;4.494;2023-11-21T02:06:38;11.25;;;3.97;;
21110;SDS011;10713;51.912;4.494;2023-11-21T02:09:04;11.40;;;3.88;;
21110;SDS011;10713;51.912;4.494;2023-11-21T02:11:29;8.68;;;3.50;;
21110;SDS011;10713;51.912;4.494;2023-11-21T02:13:55;8.95;;;3.85;;
21110;SDS011;10713;51.912;4.494;2023-11-21T02:16:23;13.90;;;3.60;;
21110;SDS011;10713;51.912;4.494;2023-11-21T02:18:48;9.52;;;3.95;;
21110;SDS011;10713;51.912;4.494;2023-11-21T02:21:14;11.77;;;3.50;;
21110;SDS011;10713;51.912;4.494;2023-11-21T02:23:40;8.85;;;3.17;;
21110;SDS011;10713;51.912;4.494;2023-11-21T02:26:09;10.13;;;3.58;;
21110;SDS011;10713;51.912;4.494;2023-11-21T02:28:35;14.27;;;3.40;;
21110;SDS011;10713;51.912;4.494;2023-11-21T02:31:00;10.60;;;3.20;;
21110;SDS011;10713;51.912;4.494;2023-11-21T02:33:27;8.70;;;3.90;;
21110;SDS011;10713;51.912;4.494;2023-11-21T02:35:53;14.60;;;3.45;;
21110;SDS011;10713;51.912;4.494;2023-11-21T02:38:19;8.73;;;3.30;;
21110;SDS011;10713;51.912;4.494;2023-11-21T02:40:45;7.75;;;3.28;;
21110;SDS011;10713;51.912;4.494;2023-11-21T02:43:11;7.72;;;3.65;;
21110;SDS011;10713;51.912;4.494;2023-11-21T02:45:36;15.85;;;4.15;;
21110;SDS011;10713;51.912;4.494;2023-11-21T02:48:02;9.20;;;4.15;;
21110;SDS011;10713;51.912;4.494;2023-11-21T02:50:27;12.02;;;3.40;;
21110;SDS011;10713;51.912;4.494;2023-11-21T02:52:53;9.20;;;3.20;;
21110;SDS011;10713;51.912;4.494;2023-11-21T02:55:18;12.02;;;3.85;;
21110;SDS011;10713;51.912;4.494;2023-11-21T02:57:44;7.65;;;3.55;;
21110;SDS011;10713;51.912;4.494;2023-11-21T03:00:09;7.95;;;3.28;;
21110;SDS011;10713;51.912;4.494;2023-11-21T03:02:37;11.65;;;3.97;;
21110;SDS011;10713;51.912;4.494;2023-11-21T03:05:04;11.65;;;3.28;;
21110;SDS011;10713;51.912;4.494;2023-11-21T03:07:30;13.73;;;3.35;;
21110;SDS011;10713;51.912;4.494;2023-11-21T03:09:56;12.65;;;3.75;;
21110;SDS011;10713;51.912;4.494;2023-11-21T03:12:21;4.93;;;2.90;;
21110;SDS011;10713;51.912;4.494;2023-11-21T03:14:46;8.80;;;3.55;;
21110;SDS011;10713;51.912;4.494;2023-11-21T03:17:12;10.82;;;3.25;;
21110;SDS011;10713;51.912;4.494;2023-11-21T03:19:40;13.20;;;3.67;;
21110;SDS011;10713;51.912;4.494;2023-11-21T03:22:06;13.55;;;3.30;;
21110;SDS011;10713;51.912;4.494;2023-11-21T03:24:32;11.27;;;3.55;;
21110;SDS011;10713;51.912;4.494;2023-11-21T03:26:57;12.30;;;3.45;;
21110;SDS011;10713;51.912;4.494;2023-11-21T03:29:22;7.95;;;2.38;;
21110;SDS011;10713;51.912;4.494;2023-11-21T03:31:48;9.13;;;3.20;;
21110;SDS011;10713;51.912;4.494;2023-11-21T03:34:24;8.85;;;3.50;;
21110;SDS011;10713;51.912;4.494;2023-11-21T03:36:53;7.35;;;3.47;;
21110;SDS011;10713;51.912;4.494;2023-11-21T03:39:21;17.88;;;4.20;;
21110;SDS011;10713;51.912;4.494;2023-11-21T03:41:47;5.03;;;3.10;;
21110;SDS011;10713;51.912;4.494;2023-11-21T03:44:13;7.82;;;3.80;;
21110;SDS011;10713;51.912;4.494;2023-11-21T03:46:38;10.90;;;3.22;;
21110;SDS011;10713;51.912;4.494;2023-11-21T03:49:04;7.30;;;3.53;;
21110;SDS011;10713;51.912;4.494;2023-11-21T03:51:29;6.38;;;3.55;;
21110;SDS011;10713;51.912;4.494;2023-11-21T03:53:55;9.43;;;3.40;;
21110;SDS011;10713;51.912;4.494;2023-11-21T03:56:20;10.88;;;3.30;;
21110;SDS011;10713;51.912;4.494;2023-11-21T03:58:47;6.22;;;3.25;;
21110;SDS011;10713;51.912;4.494;2023-11-21T04:01:18;8.02;;;3.15;;
21110;SDS011;10713;51.912;4.494;2023-11-21T04:03:47;12.20;;;3.60;;
21110;SDS011;10713;51.912;4.494;2023-11-21T04:06:13;10.23;;;3.15;;
21110;SDS011;10713;51.912;4.494;2023-11-21T04:08:38;8.82;;;3.63;;
21110;SDS011;10713;51.912;4.494;2023-11-21T04:11:03;11.88;;;3.60;;
21110;SDS011;10713;51.912;4.494;2023-11-21T04:13:29;7.75;;;3.35;;
21110;SDS011;10713;51.912;4.494;2023-11-21T04:15:55;9.02;;;2.58;;
21110;SDS011;10713;51.912;4.494;2023-11-21T04:18:20;7.00;;;2.83;;
21110;SDS011;10713;51.912;4.494;2023-11-21T04:20:46;7.90;;;3.33;;
21110;SDS011;10713;51.912;4.494;2023-11-21T04:23:11;9.35;;;2.75;;
21110;SDS011;10713;51.912;4.494;2023-11-21T04:25:38;12.48;;;2.90;;
21110;SDS011;10713;51.912;4.494;2023-11-21T04:28:04;6.93;;;2.90;;
21110;SDS011;10713;51.912;4.494;2023-11-21T04:30:29;10.95;;;3.00;;
21110;SDS011;10713;51.912;4.494;2023-11-21T04:32:54;6.00;;;2.72;;
21110;SDS011;10713;51.912;4.494;2023-11-21T04:35:20;4.95;;;2.67;;
21110;SDS011;10713;51.912;4.494;2023-11-21T04:37:45;6.45;;;2.88;;
21110;SDS011;10713;51.912;4.494;2023-11-21T04:40:11;10.50;;;2.97;;
21110;SDS011;10713;51.912;4.494;2023-11-21T04:42:36;6.70;;;3.28;;
21110;SDS011;10713;51.912;4.494;2023-11-21T04:45:03;6.45;;;2.83;;
21110;SDS011;10713;51.912;4.494;2023-11-21T04:47:33;13.95;;;3.47;;
21110;SDS011;10713;51.912;4.494;2023-11-21T04:49:59;8.70;;;2.92;;
21110;SDS011;10713;51.912;4.494;2023-11-21T04:52:24;8.40;;;3.10;;
21110;SDS011;10713;51.912;4.494;2023-11-21T04:54:49;6.65;;;3.03;;
21110;SDS011;10713;51.912;4.494;2023-11-21T04:57:15;12.10;;;3.97;;
21110;SDS011;10713;51.912;4.494;2023-11-21T04:59:43;8.63;;;3.20;;
21110;SDS011;10713;51.912;4.494;2023-11-21T05:02:08;7.85;;;3.40;;
21110;SDS011;10713;51.912;4.494;2023-11-21T05:04:33;12.50;;;3.80;;
21110;SDS011;10713;51.912;4.494;2023-11-21T05:06:59;7.82;;;3.80;;
21110;SDS011;10713;51.912;4.494;2023-11-21T05:09:25;8.30;;;3.38;;
21110;SDS011;10713;51.912;4.494;2023-11-21T05:11:51;11.82;;;3.38;;
21110;SDS011;10713;51.912;4.494;2023-11-21T05:14:16;8.82;;;3.85;;
21110;SDS011;10713;51.912;4.494;2023-11-21T05:16:43;7.57;;;2.92;;
21110;SDS011;10713;51.912;4.494;2023-11-21T05:19:09;10.25;;;3.22;;
21110;SDS011;10713;51.912;4.494;2023-11-21T05:21:34;6.75;;;3.20;;
21110;SDS011;10713;51.912;4.494;2023-11-21T05:24:01;5.03;;;2.50;;
21110;SDS011;10713;51.912;4.494;2023-11-21T05:26:26;5.78;;;2.72;;
21110;SDS011;10713;51.912;4.494;2023-11-21T05:28:52;3.15;;;1.70;;
21110;SDS011;10713;51.912;4.494;2023-11-21T05:31:18;4.38;;;1.88;;
21110;SDS011;10713;51.912;4.494;2023-11-21T05:33:43;3.70;;;2.15;;
21110;SDS011;10713;51.912;4.494;2023-11-21T05:36:08;5.50;;;2.15;;
21110;SDS011;10713;51.912;4.494;2023-11-21T05:38:35;4.95;;;1.75;;
21110;SDS011;10713;51.912;4.494;2023-11-21T05:41:01;3.63;;;1.75;;
21110;SDS011;10713;51.912;4.494;2023-11-21T05:43:27;8.38;;;1.83;;
21110;SDS011;10713;51.912;4.494;2023-11-21T05:45:54;3.15;;;1.95;;
21110;SDS011;10713;51.912;4.494;2023-11-21T05:48:20;2.78;;;1.23;;
21110;SDS011;10713;51.912;4.494;2023-11-21T05:50:46;3.88;;;2.00;;
21110;SDS011;10713;51.912;4.494;2023-11-21T05:53:11;4.95;;;1.55;;
21110;SDS011;10713;51.912;4.494;2023-11-21T05:55:36;2.60;;;1.10;;
21110;SDS011;10713;51.912;4.494;2023-11-21T05:58:02;4.22;;;1.50;;
21110;SDS011;10713;51.912;4.494;2023-11-21T06:00:27;1.33;;;1.00;;
21110;SDS011;10713;51.912;4.494;2023-11-21T06:02:53;2.17;;;1.05;;
21110;SDS011;10713;51.912;4.494;2023-11-21T06:05:19;2.65;;;1.00;;
21110;SDS011;10713;51.912;4.494;2023-11-21T06:07:48;4.35;;;1.13;;
21110;SDS011;10713;51.912;4.494;2023-11-21T06:10:14;8.27;;;1.00;;
21110;SDS011;10713;51.912;4.494;2023-11-21T06:12:40;2.92;;;1.35;;
21110;SDS011;10713;51.912;4.494;2023-11-21T06:15:07;2.53;;;1.15;;
21110;SDS011;10713;51.912;4.494;2023-11-21T06:17:34;3.65;;;1.63;;
21110;SDS011;10713;51.912;4.494;2023-11-21T06:20:04;8.98;;;1.83;;
21110;SDS011;10713;51.912;4.494;2023-11-21T06:22:40;5.63;;;2.28;;
21110;SDS011;10713;51.912;4.494;2023-11-21T06:25:09;4.38;;;1.55;;
21110;SDS011;10713;51.912;4.494;2023-11-21T06:27:37;5.55;;;2.20;;
21110;SDS011;10713;51.912;4.494;2023-11-21T06:30:06;6.63;;;2.00;;
21110;SDS011;10713;51.912;4.494;2023-11-21T06:32:34;6.00;;;1.75;;
21110;SDS011;10713;51.912;4.494;2023-11-21T06:35:00;6.32;;;2.17;;
21110;SDS011;10713;51.912;4.494;2023-11-21T06:37:27;5.88;;;1.95;;
21110;SDS011;10713;51.912;4.494;2023-11-21T06:39:53;4.55;;;2.45;;
21110;SDS011;10713;51.912;4.494;2023-11-21T06:42:19;5.75;;;2.55;;
21110;SDS011;10713;51.912;4.494;2023-11-21T06:44:45;4.43;;;2.28;;
21110;SDS011;10713;51.912;4.494;2023-11-21T06:47:11;4.15;;;2.15;;
21110;SDS011;10713;51.912;4.494;2023-11-21T06:49:37;4.40;;;2.00;;
21110;SDS011;10713;51.912;4.494;2023-11-21T06:52:03;6.03;;;2.63;;
21110;SDS011;10713;51.912;4.494;2023-11-21T06:54:30;8.43;;;1.90;;
21110;SDS011;10713;51.912;4.494;2023-11-21T06:56:56;4.43;;;1.83;;
21110;SDS011;10713;51.912;4.494;2023-11-21T06:59:23;4.13;;;1.63;;
21110;SDS011;10713;51.912;4.494;2023-11-21T07:01:48;5.60;;;1.85;;
21110;SDS011;10713;51.912;4.494;2023-11-21T07:04:14;4.63;;;1.80;;
21110;SDS011;10713;51.912;4.494;2023-11-21T07:06:40;4.80;;;1.90;;
21110;SDS011;10713;51.912;4.494;2023-11-21T07:09:05;11.95;;;1.88;;
21110;SDS011;10713;51.912;4.494;2023-11-21T07:11:33;6.57;;;1.83;;
21110;SDS011;10713;51.912;4.494;2023-11-21T07:13:58;5.70;;;1.88;;
21110;SDS011;10713;51.912;4.494;2023-11-21T07:16:24;3.45;;;1.85;;
21110;SDS011;10713;51.912;4.494;2023-11-21T07:18:50;10.23;;;2.40;;
21110;SDS011;10713;51.912;4.494;2023-11-21T07:21:15;6.40;;;2.05;;
21110;SDS011;10713;51.912;4.494;2023-11-21T07:23:41;3.38;;;2.00;;
21110;SDS011;10713;51.912;4.494;2023-11-21T07:26:06;6.05;;;1.90;;
21110;SDS011;10713;51.912;4.494;2023-11-21T07:28:34;6.93;;;2.08;;
21110;SDS011;10713;51.912;4.494;2023-11-21T07:31:00;9.82;;;2.05;;
21110;SDS011;10713;51.912;4.494;2023-11-21T07:33:26;2.63;;;1.30;;
21110;SDS011;10713;51.912;4.494;2023-11-21T07:35:51;4.88;;;2.15;;
21110;SDS011;10713;51.912;4.494;2023-11-21T07:38:17;2.30;;;1.42;;
21110;SDS011;10713;51.912;4.494;2023-11-21T07:40:42;3.28;;;1.83;;
21110;SDS011;10713;51.912;4.494;2023-11-21T07:43:08;5.47;;;2.17;;
21110;SDS011;10713;51.912;4.494;2023-11-21T07:45:34;4.75;;;1.90;;
21110;SDS011;10713;51.912;4.494;2023-11-21T07:47:59;3.65;;;2.20;;
21110;SDS011;10713;51.912;4.494;2023-11-21T07:50:28;4.05;;;1.60;;
21110;SDS011;10713;51.912;4.494;2023-11-21T07:52:53;4.15;;;1.88;;
21110;SDS011;10713;51.912;4.494;2023-11-21T07:55:19;4.28;;;2.05;;
21110;SDS011;10713;51.912;4.494;2023-11-21T07:57:44;3.90;;;1.80;;
21110;SDS011;10713;51.912;4.494;2023-11-21T08:00:10;3.17;;;1.40;;
21110;SDS011;10713;51.912;4.494;2023-11-21T08:02:37;5.70;;;1.70;;
21110;SDS011;10713;51.912;4.494;2023-11-21T08:05:11;10.60;;;1.90;;
21110;SDS011;10713;51.912;4.494;2023-11-21T08:07:37;4.50;;;1.88;;
21110;SDS011;10713;51.912;4.494;2023-11-21T08:10:02;4.00;;;1.73;;
21110;SDS011;10713;51.912;4.494;2023-11-21T08:12:29;12.13;;;1.98;;
21110;SDS011;10713;51.912;4.494;2023-11-21T08:14:55;9.07;;;1.83;;
21110;SDS011;10713;51.912;4.494;2023-11-21T08:17:20;8.68;;;1.90;;
21110;SDS011;10713;51.912;4.494;2023-11-21T08:19:46;2.22;;;1.40;;
21110;SDS011;10713;51.912;4.494;2023-11-21T08:22:14;6.82;;;1.92;;
21110;SDS011;10713;51.912;4.494;2023-11-21T08:24:45;4.22;;;1.85;;
21110;SDS011;10713;51.912;4.494;2023-11-21T08:27:11;4.68;;;1.92;;
21110;SDS011;10713;51.912;4.494;2023-11-21T08:29:40;8.70;;;1.92;;
21110;SDS011;10713;51.912;4.494;2023-11-21T08:32:05;4.63;;;2.05;;
21110;SDS011;10713;51.912;4.494;2023-11-21T08:34:31;6.03;;;1.77;;
21110;SDS011;10713;51.912;4.494;2023-11-21T08:36:56;4.63;;;1.60;;
21110;SDS011;10713;51.912;4.494;2023-11-21T08:39:22;12.13;;;1.88;;
21110;SDS011;10713;51.912;4.494;2023-11-21T08:41:49;3.80;;;2.00;;
21110;SDS011;10713;51.912;4.494;2023-11-21T08:44:15;4.57;;;2.35;;
21110;SDS011;10713;51.912;4.494;2023-11-21T08:46:43;4.20;;;1.80;;
21110;SDS011;10713;51.912;4.494;2023-11-21T08:49:10;5.28;;;2.08;;
21110;SDS011;10713;51.912;4.494;2023-11-21T08:51:36;8.32;;;2.17;;
21110;SDS011;10713;51.912;4.494;2023-11-21T08:54:02;6.55;;;2.15;;
21110;SDS011;10713;51.912;4.494;2023-11-21T08:56:29;7.75;;;1.90;;
21110;SDS011;10713;51.912;4.494;2023-11-21T08:58:55;10.88;;;2.28;;
21110;SDS011;10713;51.912;4.494;2023-11-21T09:01:20;12.40;;;2.17;;
21110;SDS011;10713;51.912;4.494;2023-11-21T09:03:46;3.85;;;2.15;;
21110;SDS011;10713;51.912;4.494;2023-11-21T09:06:12;3.40;;;1.85;;
21110;SDS011;10713;51.912;4.494;2023-11-21T09:08:39;4.40;;;2.22;;
21110;SDS011;10713;51.912;4.494;2023-11-21T09:11:04;3.90;;;1.98;;
21110;SDS011;10713;51.912;4.494;2023-11-21T09:13:30;2.90;;;1.33;;
21110;SDS011;10713;51.912;4.494;2023-11-21T09:15:56;4.10;;;2.05;;
21110;SDS011;10713;51.912;4.494;2023-11-21T09:18:21;5.65;;;2.55;;
21110;SDS011;10713;51.912;4.494;2023-11-21T09:20:46;7.10;;;1.67;;
21110;SDS011;10713;51.912;4.494;2023-11-21T09:23:12;7.75;;;2.38;;
21110;SDS011;10713;51.912;4.494;2023-11-21T09:25:37;6.10;;;2.20;;
21110;SDS011;10713;51.912;4.494;2023-11-21T09:28:03;5.82;;;1.80;;
21110;SDS011;10713;51.912;4.494;2023-11-21T09:30:33;6.63;;;1.98;;
21110;SDS011;10713;51.912;4.494;2023-11-21T09:33:00;5.40;;;2.80;;
21110;SDS011;10713;51.912;4.494;2023-11-21T09:35:25;4.45;;;1.88;;
21110;SDS011;10713;51.912;4.494;2023-11-21T09:37:52;4.55;;;2.10;;
21110;SDS011;10713;51.912;4.494;2023-11-21T09:40:20;3.97;;;2.10;;
21110;SDS011;10713;51.912;4.494;2023-11-21T09:42:49;5.15;;;2.30;;
21110;SDS011;10713;51.912;4.494;2023-11-21T09:45:34;8.88;;;2.40;;
21110;SDS011;10713;51.912;4.494;2023-11-21T09:48:01;5.53;;;2.53;;
21110;SDS011;10713;51.912;4.494;2023-11-21T09:50:27;4.95;;;2.40;;
21110;SDS011;10713;51.912;4.494;2023-11-21T09:55:48;6.50;;;2.42;;
21110;SDS011;10713;51.912;4.494;2023-11-21T09:58:16;9.25;;;3.00;;
21110;SDS011;10713;51.912;4.494;2023-11-21T10:00:43;4.78;;;2.13;;
21110;SDS011;10713;51.912;4.494;2023-11-21T10:03:09;7.03;;;3.17;;
21110;SDS011;10713;51.912;4.494;2023-11-21T10:05:36;7.38;;;2.90;;
21110;SDS011;10713;51.912;4.494;2023-11-21T10:08:03;7.63;;;3.25;;
21110;SDS011;10713;51.912;4.494;2023-11-21T10:10:32;5.93;;;2.83;;
21110;SDS011;10713;51.912;4.494;2023-11-21T10:12:57;11.02;;;2.88;;
21110;SDS011;10713;51.912;4.494;2023-11-21T10:15:27;6.80;;;3.05;;
21110;SDS011;10713;51.912;4.494;2023-11-21T10:17:54;6.65;;;3.22;;
21110;SDS011;10713;51.912;4.494;2023-11-21T10:20:20;6.45;;;2.92;;
21110;SDS011;10713;51.912;4.494;2023-11-21T10:22:49;5.88;;;2.72;;
21110;SDS011;10713;51.912;4.494;2023-11-21T10:25:15;6.50;;;2.50;;
21110;SDS011;10713;51.912;4.494;2023-11-21T10:27:40;6.88;;;2.75;;
21110;SDS011;10713;51.912;4.494;2023-11-21T10:30:06;5.20;;;2.38;;
21110;SDS011;10713;51.912;4.494;2023-11-21T10:32:33;5.53;;;2.15;;
21110;SDS011;10713;51.912;4.494;2023-11-21T10:34:59;9.38;;;3.20;;
21110;SDS011;10713;51.912;4.494;2023-11-21T10:37:34;9.63;;;2.42;;
21110;SDS011;10713;51.912;4.494;2023-11-21T10:40:10;6.32;;;2.03;;
21110;SDS011;10713;51.912;4.494;2023-11-21T10:42:39;7.28;;;2.17;;
21110;SDS011;10713;51.912;4.494;2023-11-21T10:45:05;7.05;;;2.70;;
21110;SDS011;10713;51.912;4.494;2023-11-21T10:47:42;7.47;;;2.83;;
21110;SDS011;10713;51.912;4.494;2023-11-21T10:50:09;4.68;;;2.22;;
21110;SDS011;10713;51.912;4.494;2023-11-21T10:52:45;7.70;;;2.67;;
21110;SDS011;10713;51.912;4.494;2023-11-21T10:55:21;4.95;;;2.05;;
21110;SDS011;10713;51.912;4.494;2023-11-21T10:57:49;6.50;;;2.42;;
21110;SDS011;10713;51.912;4.494;2023-11-21T11:00:18;7.10;;;2.53;;
21110;SDS011;10713;51.912;4.494;2023-11-21T11:02:49;4.18;;;1.55;;
21110;SDS011;10713;51.912;4.494;2023-11-21T11:05:16;5.90;;;2.45;;
21110;SDS011;10713;51.912;4.494;2023-11-21T11:07:44;3.50;;;1.83;;
21110;SDS011;10713;51.912;4.494;2023-11-21T11:10:20;7.03;;;2.00;;
21110;SDS011;10713;51.912;4.494;2023-11-21T11:12:47;8.43;;;2.42;;
21110;SDS011;10713;51.912;4.494;2023-11-21T11:15:14;5.53;;;2.58;;
21110;SDS011;10713;51.912;4.494;2023-11-21T11:17:41;9.50;;;2.70;;
21110;SDS011;10713;51.912;4.494;2023-11-21T11:20:08;5.63;;;2.45;;
21110;SDS011;10713;51.912;4.494;2023-11-21T11:22:37;6.25;;;2.35;;
21110;SDS011;10713;51.912;4.494;2023-11-21T11:33:53;8.13;;;3.40;;
21110;SDS011;10713;51.912;4.494;2023-11-21T11:36:31;10.63;;;2.65;;
21110;SDS011;10713;51.912;4.494;2023-11-21T11:39:02;9.80;;;2.97;;
21110;SDS011;10713;51.912;4.494;2023-11-21T11:41:31;9.18;;;3.30;;
21110;SDS011;10713;51.912;4.494;2023-11-21T11:44:02;8.80;;;3.58;;
21110;SDS011;10713;51.912;4.494;2023-11-21T11:46:41;7.60;;;3.17;;
21110;SDS011;10713;51.912;4.494;2023-11-21T11:49:07;7.38;;;3.22;;
21110;SDS011;10713;51.912;4.494;2023-11-21T11:51:33;6.90;;;3.67;;
21110;SDS011;10713;51.912;4.494;2023-11-21T11:54:00;12.75;;;3.00;;
21110;SDS011;10713;51.912;4.494;2023-11-21T11:56:30;6.95;;;3.05;;
21110;SDS011;10713;51.912;4.494;2023-11-21T11:58:59;9.13;;;3.20;;
21110;SDS011;10713;51.912;4.494;2023-11-21T12:01:32;6.97;;;2.58;;
21110;SDS011;10713;51.912;4.494;2023-11-21T12:06:40;8.63;;;3.28;;
21110;SDS011;10713;51.912;4.494;2023-11-21T12:09:06;10.35;;;3.63;;
21110;SDS011;10713;51.912;4.494;2023-11-21T12:11:40;6.05;;;2.63;;
21110;SDS011;10713;51.912;4.494;2023-11-21T12:14:06;10.32;;;3.33;;
21110;SDS011;10713;51.912;4.494;2023-11-21T12:16:32;9.70;;;3.47;;
21110;SDS011;10713;51.912;4.494;2023-11-21T12:18:58;9.32;;;2.75;;
21110;SDS011;10713;51.912;4.494;2023-11-21T12:21:23;10.30;;;2.58;;
21110;SDS011;10713;51.912;4.494;2023-11-21T12:23:49;6.68;;;2.40;;
21110;SDS011;10713;51.912;4.494;2023-11-21T12:26:14;5.20;;;2.08;;
21110;SDS011;10713;51.912;4.494;2023-11-21T12:28:39;5.10;;;2.60;;
21110;SDS011;10713;51.912;4.494;2023-11-21T12:31:05;8.10;;;2.55;;
21110;SDS011;10713;51.912;4.494;2023-11-21T12:33:32;8.40;;;2.63;;
21110;SDS011;10713;51.912;4.494;2023-11-21T12:35:58;9.35;;;3.00;;
21110;SDS011;10713;51.912;4.494;2023-11-21T12:38:23;7.82;;;2.67;;
21110;SDS011;10713;51.912;4.494;2023-11-21T12:40:49;8.05;;;3.03;;
21110;SDS011;10713;51.912;4.494;2023-11-21T12:43:15;6.68;;;2.30;;
21110;SDS011;10713;51.912;4.494;2023-11-21T12:45:43;10.30;;;3.45;;
21110;SDS011;10713;51.912;4.494;2023-11-21T12:48:08;7.55;;;3.13;;
21110;SDS011;10713;51.912;4.494;2023-11-21T12:50:37;5.22;;;2.58;;
21110;SDS011;10713;51.912;4.494;2023-11-21T12:53:10;5.90;;;2.47;;
21110;SDS011;10713;51.912;4.494;2023-11-21T12:55:42;5.78;;;2.20;;
21110;SDS011;10713;51.912;4.494;2023-11-21T12:58:14;4.47;;;1.98;;
21110;SDS011;10713;51.912;4.494;2023-11-21T13:00:43;4.63;;;1.88;;
21110;SDS011;10713;51.912;4.494;2023-11-21T13:03:11;4.90;;;1.60;;
21110;SDS011;10713;51.912;4.494;2023-11-21T13:05:41;4.53;;;1.83;;
21110;SDS011;10713;51.912;4.494;2023-11-21T13:08:09;4.57;;;2.40;;
21110;SDS011;10713;51.912;4.494;2023-11-21T13:10:38;4.18;;;2.17;;
21110;SDS011;10713;51.912;4.494;2023-11-21T13:13:09;9.63;;;2.20;;
21110;SDS011;10713;51.912;4.494;2023-11-21T13:15:46;6.38;;;2.30;;
21110;SDS011;10713;51.912;4.494;2023-11-21T13:18:22;3.67;;;2.13;;
21110;SDS011;10713;51.912;4.494;2023-11-21T13:20:48;6.38;;;2.40;;
21110;SDS011;10713;51.912;4.494;2023-11-21T13:23:15;4.57;;;2.08;;
21110;SDS011;10713;51.912;4.494;2023-11-21T13:25:41;5.95;;;2.60;;
21110;SDS011;10713;51.912;4.494;2023-11-21T13:28:08;6.15;;;2.50;;
21110;SDS011;10713;51.912;4.494;2023-11-21T13:30:37;5.65;;;2.25;;
21110;SDS011;10713;51.912;4.494;2023-11-21T13:33:05;8.90;;;3.03;;
21110;SDS011;10713;51.912;4.494;2023-11-21T13:35:32;6.90;;;2.50;;
21110;SDS011;10713;51.912;4.494;2023-11-21T13:38:08;7.35;;;2.65;;
21110;SDS011;10713;51.912;4.494;2023-11-21T13:40:37;6.50;;;2.80;;
21110;SDS011;10713;51.912;4.494;2023-11-21T13:43:11;7.85;;;3.15;;
21110;SDS011;10713;51.912;4.494;2023-11-21T13:45:38;7.85;;;2.78;;
21110;SDS011;10713;51.912;4.494;2023-11-21T13:48:05;6.68;;;2.92;;
21110;SDS011;10713;51.912;4.494;2023-11-21T13:50:35;6.38;;;2.72;;
21110;SDS011;10713;51.912;4.494;2023-11-21T13:53:04;7.22;;;3.00;;
21110;SDS011;10713;51.912;4.494;2023-11-21T13:55:41;6.05;;;2.85;;
21110;SDS011;10713;51.912;4.494;2023-11-21T13:58:07;6.68;;;2.97;;
21110;SDS011;10713;51.912;4.494;2023-11-21T14:00:36;8.38;;;2.67;;
21110;SDS011;10713;51.912;4.494;2023-11-21T14:03:09;7.50;;;3.10;;
21110;SDS011;10713;51.912;4.494;2023-11-21T14:05:42;5.03;;;2.45;;
21110;SDS011;10713;51.912;4.494;2023-11-21T14:08:09;6.00;;;2.38;;
21110;SDS011;10713;51.912;4.494;2023-11-21T14:10:37;5.50;;;2.72;;
21110;SDS011;10713;51.912;4.494;2023-11-21T14:13:08;7.75;;;2.95;;
21110;SDS011;10713;51.912;4.494;2023-11-21T14:15:35;6.68;;;2.72;;
21110;SDS011;10713;51.912;4.494;2023-11-21T14:18:06;7.07;;;2.50;;
21110;SDS011;10713;51.912;4.494;2023-11-21T14:20:35;7.68;;;3.45;;
21110;SDS011;10713;51.912;4.494;2023-11-21T14:23:02;9.55;;;2.70;;
21110;SDS011;10713;51.912;4.494;2023-11-21T14:25:29;9.57;;;3.00;;
21110;SDS011;10713;51.912;4.494;2023-11-21T14:27:55;8.25;;;2.50;;
21110;SDS011;10713;51.912;4.494;2023-11-21T14:30:21;12.73;;;3.00;;
21110;SDS011;10713;51.912;4.494;2023-11-21T14:32:47;7.43;;;2.80;;
21110;SDS011;10713;51.912;4.494;2023-11-21T14:35:13;7.72;;;3.10;;
21110;SDS011;10713;51.912;4.494;2023-11-21T14:37:40;6.78;;;2.67;;
21110;SDS011;10713;51.912;4.494;2023-11-21T14:40:05;11.25;;;3.47;;
21110;SDS011;10713;51.912;4.494;2023-11-21T14:42:32;7.95;;;3.75;;
21110;SDS011;10713;51.912;4.494;2023-11-21T14:44:58;9.45;;;4.07;;
21110;SDS011;10713;51.912;4.494;2023-11-21T14:47:28;9.57;;;3.72;;
21110;SDS011;10713;51.912;4.494;2023-11-21T14:49:53;8.95;;;3.50;;
21110;SDS011;10713;51.912;4.494;2023-11-21T14:52:21;7.95;;;3.55;;
21110;SDS011;10713;51.912;4.494;2023-11-21T14:55:02;10.80;;;3.78;;
21110;SDS011;10713;51.912;4.494;2023-11-21T14:57:50;11.63;;;3.17;;